Cameron, New Mexico
Current Conditions -  °F | °C
As of 4:15 PM on Friday 31 Oct 2014 (Local Time) from KCVN Reporting Station
Clear Clear  
Wind Chill: 63°   Ceiling: Unl
Heat Index: 63°   Visibility: 10mi
Dew Point: 30°   Wind: 14mph
Humidity: 30%   Direction: 150°SSE
Pressure: 30.36"   Gusts: 21mph
Location:  34.7878°N, 103.316°W
Report Text: KCVN 312215Z AUTO 15012G18KT 10SM CLR 17/M01 A3036 RMK AO1
Loading
Personal Weather Stations






























Interactive Weather Map
Tropical Storm Tracking
New forecast layout! Learn more

10-Day Weather Forecast

Advertisements
Track Severe Weather on mobile